sensor_id;sensor_type;location;lat;lon;timestamp;P1;durP1;ratioP1;P2;durP2;ratioP2
47713;SDS011;33475;46.614;13.888;2022-09-12T00:01:03;0.80;;;0.55;;
47713;SDS011;33475;46.614;13.888;2022-09-12T00:03:30;1.42;;;0.70;;
47713;SDS011;33475;46.614;13.888;2022-09-12T00:05:56;0.95;;;0.52;;
47713;SDS011;33475;46.614;13.888;2022-09-12T00:08:22;2.05;;;0.70;;
47713;SDS011;33475;46.614;13.888;2022-09-12T00:10:48;2.80;;;0.85;;
47713;SDS011;33475;46.614;13.888;2022-09-12T00:13:14;7.18;;;1.08;;
47713;SDS011;33475;46.614;13.888;2022-09-12T00:15:41;1.70;;;0.88;;
47713;SDS011;33475;46.614;13.888;2022-09-12T00:18:07;2.45;;;0.80;;
47713;SDS011;33475;46.614;13.888;2022-09-12T00:20:34;4.35;;;0.70;;
47713;SDS011;33475;46.614;13.888;2022-09-12T00:23:00;2.92;;;0.60;;
47713;SDS011;33475;46.614;13.888;2022-09-12T00:25:27;0.70;;;0.70;;
47713;SDS011;33475;46.614;13.888;2022-09-12T00:27:54;2.05;;;0.57;;
47713;SDS011;33475;46.614;13.888;2022-09-12T00:30:20;1.63;;;0.63;;
47713;SDS011;33475;46.614;13.888;2022-09-12T00:32:47;0.50;;;0.50;;
47713;SDS011;33475;46.614;13.888;2022-09-12T00:35:14;3.13;;;0.60;;
47713;SDS011;33475;46.614;13.888;2022-09-12T00:37:40;1.95;;;0.57;;
47713;SDS011;33475;46.614;13.888;2022-09-12T00:40:06;1.27;;;0.70;;
47713;SDS011;33475;46.614;13.888;2022-09-12T00:42:32;5.25;;;0.80;;
47713;SDS011;33475;46.614;13.888;2022-09-12T00:44:59;3.15;;;0.82;;
47713;SDS011;33475;46.614;13.888;2022-09-12T00:47:28;0.77;;;0.60;;
47713;SDS011;33475;46.614;13.888;2022-09-12T00:50:02;3.03;;;0.60;;
47713;SDS011;33475;46.614;13.888;2022-09-12T00:52:45;3.97;;;0.80;;
47713;SDS011;33475;46.614;13.888;2022-09-12T00:55:18;7.07;;;0.93;;
47713;SDS011;33475;46.614;13.888;2022-09-12T01:00:21;0.70;;;0.50;;
47713;SDS011;33475;46.614;13.888;2022-09-12T01:02:48;1.92;;;0.77;;
47713;SDS011;33475;46.614;13.888;2022-09-12T01:05:16;0.73;;;0.60;;
47713;SDS011;33475;46.614;13.888;2022-09-12T01:07:42;1.02;;;1.00;;
47713;SDS011;33475;46.614;13.888;2022-09-12T01:10:12;1.58;;;0.70;;
47713;SDS011;33475;46.614;13.888;2022-09-12T01:12:39;0.85;;;0.70;;
47713;SDS011;33475;46.614;13.888;2022-09-12T01:15:07;3.28;;;0.70;;
47713;SDS011;33475;46.614;13.888;2022-09-12T01:22:52;1.55;;;0.70;;
47713;SDS011;33475;46.614;13.888;2022-09-12T01:25:30;1.65;;;0.80;;
47713;SDS011;33475;46.614;13.888;2022-09-12T01:36:40;1.70;;;0.68;;
47713;SDS011;33475;46.614;13.888;2022-09-12T01:39:13;2.53;;;1.20;;
47713;SDS011;33475;46.614;13.888;2022-09-12T01:47:17;0.98;;;0.73;;
47713;SDS011;33475;46.614;13.888;2022-09-12T01:50:03;1.33;;;0.70;;
47713;SDS011;33475;46.614;13.888;2022-09-12T01:52:38;2.05;;;0.60;;
47713;SDS011;33475;46.614;13.888;2022-09-12T01:57:36;0.73;;;0.50;;
47713;SDS011;33475;46.614;13.888;2022-09-12T02:00:06;6.63;;;0.60;;
47713;SDS011;33475;46.614;13.888;2022-09-12T02:02:43;0.70;;;0.70;;
47713;SDS011;33475;46.614;13.888;2022-09-12T02:07:44;3.40;;;0.70;;
47713;SDS011;33475;46.614;13.888;2022-09-12T02:10:19;0.57;;;0.57;;
47713;SDS011;33475;46.614;13.888;2022-09-12T02:13:00;0.98;;;0.70;;
47713;SDS011;33475;46.614;13.888;2022-09-12T02:15:31;1.08;;;0.70;;
47713;SDS011;33475;46.614;13.888;2022-09-12T02:17:59;1.77;;;0.75;;
47713;SDS011;33475;46.614;13.888;2022-09-12T02:20:27;1.33;;;0.80;;
47713;SDS011;33475;46.614;13.888;2022-09-12T02:22:54;4.25;;;0.75;;
47713;SDS011;33475;46.614;13.888;2022-09-12T02:25:21;5.55;;;0.80;;
47713;SDS011;33475;46.614;13.888;2022-09-12T02:28:01;0.70;;;0.70;;
47713;SDS011;33475;46.614;13.888;2022-09-12T02:30:30;2.70;;;0.88;;
47713;SDS011;33475;46.614;13.888;2022-09-12T02:33:00;1.15;;;0.70;;
47713;SDS011;33475;46.614;13.888;2022-09-12T02:35:32;3.13;;;0.80;;
47713;SDS011;33475;46.614;13.888;2022-09-12T02:38:03;5.97;;;0.90;;
47713;SDS011;33475;46.614;13.888;2022-09-12T02:40:31;0.95;;;0.65;;
47713;SDS011;33475;46.614;13.888;2022-09-12T02:42:58;3.45;;;0.80;;
47713;SDS011;33475;46.614;13.888;2022-09-12T02:45:25;3.45;;;0.90;;
47713;SDS011;33475;46.614;13.888;2022-09-12T02:50:20;4.47;;;1.00;;
47713;SDS011;33475;46.614;13.888;2022-09-12T02:52:47;2.55;;;0.65;;
47713;SDS011;33475;46.614;13.888;2022-09-12T02:55:13;2.10;;;0.70;;
47713;SDS011;33475;46.614;13.888;2022-09-12T02:57:40;1.45;;;0.80;;
47713;SDS011;33475;46.614;13.888;2022-09-12T03:00:07;1.05;;;0.75;;
47713;SDS011;33475;46.614;13.888;2022-09-12T03:13:32;2.55;;;0.70;;
47713;SDS011;33475;46.614;13.888;2022-09-12T03:15:52;9.88;;;0.90;;
47713;SDS011;33475;46.614;13.888;2022-09-12T03:18:28;3.15;;;1.23;;
47713;SDS011;33475;46.614;13.888;2022-09-12T03:21:08;2.28;;;0.75;;
47713;SDS011;33475;46.614;13.888;2022-09-12T03:23:37;0.77;;;0.60;;
47713;SDS011;33475;46.614;13.888;2022-09-12T03:26:16;2.40;;;1.10;;
47713;SDS011;33475;46.614;13.888;2022-09-12T03:28:46;8.13;;;2.83;;
47713;SDS011;33475;46.614;13.888;2022-09-12T03:31:13;4.22;;;2.42;;
47713;SDS011;33475;46.614;13.888;2022-09-12T03:33:40;6.53;;;2.65;;
47713;SDS011;33475;46.614;13.888;2022-09-12T03:36:09;3.70;;;2.08;;
47713;SDS011;33475;46.614;13.888;2022-09-12T03:38:39;7.88;;;2.60;;
47713;SDS011;33475;46.614;13.888;2022-09-12T03:41:05;4.18;;;2.35;;
47713;SDS011;33475;46.614;13.888;2022-09-12T03:43:31;3.92;;;1.90;;
47713;SDS011;33475;46.614;13.888;2022-09-12T03:45:58;7.20;;;3.00;;
47713;SDS011;33475;46.614;13.888;2022-09-12T03:48:24;3.30;;;1.95;;
47713;SDS011;33475;46.614;13.888;2022-09-12T03:50:50;5.22;;;2.33;;
47713;SDS011;33475;46.614;13.888;2022-09-12T03:53:16;6.15;;;2.20;;
47713;SDS011;33475;46.614;13.888;2022-09-12T03:55:42;5.00;;;2.33;;
47713;SDS011;33475;46.614;13.888;2022-09-12T03:58:08;7.75;;;2.50;;
47713;SDS011;33475;46.614;13.888;2022-09-12T04:00:34;3.00;;;1.67;;
47713;SDS011;33475;46.614;13.888;2022-09-12T04:03:01;2.90;;;1.90;;
47713;SDS011;33475;46.614;13.888;2022-09-12T04:05:27;3.30;;;1.90;;
47713;SDS011;33475;46.614;13.888;2022-09-12T04:07:54;3.95;;;1.40;;
47713;SDS011;33475;46.614;13.888;2022-09-12T04:10:20;1.77;;;1.10;;
47713;SDS011;33475;46.614;13.888;2022-09-12T04:12:46;1.67;;;1.15;;
47713;SDS011;33475;46.614;13.888;2022-09-12T04:15:13;5.55;;;1.33;;
47713;SDS011;33475;46.614;13.888;2022-09-12T04:17:39;2.72;;;1.10;;
47713;SDS011;33475;46.614;13.888;2022-09-12T04:20:05;6.38;;;1.55;;
47713;SDS011;33475;46.614;13.888;2022-09-12T04:22:32;2.13;;;1.75;;
47713;SDS011;33475;46.614;13.888;2022-09-12T04:24:58;1.38;;;1.27;;
47713;SDS011;33475;46.614;13.888;2022-09-12T04:27:24;5.30;;;1.50;;
47713;SDS011;33475;46.614;13.888;2022-09-12T04:29:50;4.18;;;1.52;;
47713;SDS011;33475;46.614;13.888;2022-09-12T04:32:18;9.57;;;1.98;;
47713;SDS011;33475;46.614;13.888;2022-09-12T04:34:46;6.28;;;1.85;;
47713;SDS011;33475;46.614;13.888;2022-09-12T04:37:12;5.45;;;1.85;;
47713;SDS011;33475;46.614;13.888;2022-09-12T04:39:38;6.78;;;1.65;;
47713;SDS011;33475;46.614;13.888;2022-09-12T04:42:05;4.18;;;1.77;;
47713;SDS011;33475;46.614;13.888;2022-09-12T04:44:31;4.60;;;1.50;;
47713;SDS011;33475;46.614;13.888;2022-09-12T04:46:57;13.15;;;1.70;;
47713;SDS011;33475;46.614;13.888;2022-09-12T04:49:23;3.35;;;1.60;;
47713;SDS011;33475;46.614;13.888;2022-09-12T04:51:51;10.15;;;4.93;;
47713;SDS011;33475;46.614;13.888;2022-09-12T04:54:18;10.43;;;3.58;;
47713;SDS011;33475;46.614;13.888;2022-09-12T04:56:45;9.30;;;3.70;;
47713;SDS011;33475;46.614;13.888;2022-09-12T04:59:13;16.58;;;3.25;;
47713;SDS011;33475;46.614;13.888;2022-09-12T05:01:40;6.03;;;2.30;;
47713;SDS011;33475;46.614;13.888;2022-09-12T05:04:06;7.95;;;1.40;;
47713;SDS011;33475;46.614;13.888;2022-09-12T05:06:33;3.78;;;1.90;;
47713;SDS011;33475;46.614;13.888;2022-09-12T05:09:00;3.85;;;1.63;;
47713;SDS011;33475;46.614;13.888;2022-09-12T05:11:28;12.52;;;3.28;;
47713;SDS011;33475;46.614;13.888;2022-09-12T05:13:54;8.60;;;2.47;;
47713;SDS011;33475;46.614;13.888;2022-09-12T05:16:21;6.97;;;2.42;;
47713;SDS011;33475;46.614;13.888;2022-09-12T05:18:47;8.05;;;2.85;;
47713;SDS011;33475;46.614;13.888;2022-09-12T05:21:16;8.27;;;2.00;;
47713;SDS011;33475;46.614;13.888;2022-09-12T05:23:42;6.70;;;2.03;;
47713;SDS011;33475;46.614;13.888;2022-09-12T05:26:11;3.33;;;1.73;;
47713;SDS011;33475;46.614;13.888;2022-09-12T05:28:38;3.58;;;1.42;;
47713;SDS011;33475;46.614;13.888;2022-09-12T05:31:10;2.72;;;1.25;;
47713;SDS011;33475;46.614;13.888;2022-09-12T05:33:37;5.15;;;1.30;;
47713;SDS011;33475;46.614;13.888;2022-09-12T05:36:04;3.42;;;1.25;;
47713;SDS011;33475;46.614;13.888;2022-09-12T05:38:33;4.57;;;1.33;;
47713;SDS011;33475;46.614;13.888;2022-09-12T05:41:03;6.32;;;1.63;;
47713;SDS011;33475;46.614;13.888;2022-09-12T05:43:31;2.45;;;1.30;;
47713;SDS011;33475;46.614;13.888;2022-09-12T05:46:01;2.42;;;1.13;;
47713;SDS011;33475;46.614;13.888;2022-09-12T05:48:28;4.93;;;1.20;;
47713;SDS011;33475;46.614;13.888;2022-09-12T05:51:01;2.53;;;1.00;;
47713;SDS011;33475;46.614;13.888;2022-09-12T05:53:28;1.95;;;0.73;;
47713;SDS011;33475;46.614;13.888;2022-09-12T05:56:05;1.60;;;0.90;;
47713;SDS011;33475;46.614;13.888;2022-09-12T05:58:32;2.78;;;0.80;;
47713;SDS011;33475;46.614;13.888;2022-09-12T06:01:03;4.50;;;0.55;;
47713;SDS011;33475;46.614;13.888;2022-09-12T06:03:31;4.10;;;0.77;;
47713;SDS011;33475;46.614;13.888;2022-09-12T06:06:00;1.48;;;0.90;;
47713;SDS011;33475;46.614;13.888;2022-09-12T06:08:27;3.33;;;0.77;;
47713;SDS011;33475;46.614;13.888;2022-09-12T06:10:57;4.82;;;0.68;;
47713;SDS011;33475;46.614;13.888;2022-09-12T06:13:23;3.08;;;0.50;;
47713;SDS011;33475;46.614;13.888;2022-09-12T06:15:50;2.67;;;0.70;;
47713;SDS011;33475;46.614;13.888;2022-09-12T06:18:16;3.00;;;0.47;;
47713;SDS011;33475;46.614;13.888;2022-09-12T06:20:42;1.98;;;0.60;;
47713;SDS011;33475;46.614;13.888;2022-09-12T06:23:08;0.68;;;0.47;;
47713;SDS011;33475;46.614;13.888;2022-09-12T06:25:34;1.33;;;0.40;;
47713;SDS011;33475;46.614;13.888;2022-09-12T06:28:01;0.85;;;0.70;;
47713;SDS011;33475;46.614;13.888;2022-09-12T06:30:27;1.13;;;0.47;;
47713;SDS011;33475;46.614;13.888;2022-09-12T06:32:53;0.68;;;0.50;;
47713;SDS011;33475;46.614;13.888;2022-09-12T06:35:21;4.82;;;0.50;;
47713;SDS011;33475;46.614;13.888;2022-09-12T06:37:47;0.95;;;0.50;;
47713;SDS011;33475;46.614;13.888;2022-09-12T06:40:14;2.78;;;0.55;;
47713;SDS011;33475;46.614;13.888;2022-09-12T06:42:40;4.38;;;0.88;;
47713;SDS011;33475;46.614;13.888;2022-09-12T06:45:06;3.95;;;0.80;;
47713;SDS011;33475;46.614;13.888;2022-09-12T06:47:33;1.77;;;0.50;;
47713;SDS011;33475;46.614;13.888;2022-09-12T06:49:59;5.50;;;0.80;;
47713;SDS011;33475;46.614;13.888;2022-09-12T06:52:25;0.80;;;0.30;;
47713;SDS011;33475;46.614;13.888;2022-09-12T06:54:53;8.25;;;0.80;;
47713;SDS011;33475;46.614;13.888;2022-09-12T06:57:19;0.30;;;0.30;;
47713;SDS011;33475;46.614;13.888;2022-09-12T06:59:45;0.93;;;0.55;;
47713;SDS011;33475;46.614;13.888;2022-09-12T07:02:11;0.70;;;0.32;;
47713;SDS011;33475;46.614;13.888;2022-09-12T07:04:37;1.45;;;0.50;;
47713;SDS011;33475;46.614;13.888;2022-09-12T07:07:04;0.75;;;0.30;;
47713;SDS011;33475;46.614;13.888;2022-09-12T07:09:30;3.92;;;0.68;;
47713;SDS011;33475;46.614;13.888;2022-09-12T07:11:56;1.25;;;0.68;;
47713;SDS011;33475;46.614;13.888;2022-09-12T07:14:22;2.67;;;0.60;;
47713;SDS011;33475;46.614;13.888;2022-09-12T07:16:50;0.80;;;0.43;;
47713;SDS011;33475;46.614;13.888;2022-09-12T07:19:16;5.40;;;0.50;;
47713;SDS011;33475;46.614;13.888;2022-09-12T07:21:42;0.90;;;0.73;;
47713;SDS011;33475;46.614;13.888;2022-09-12T07:24:08;1.42;;;1.25;;
47713;SDS011;33475;46.614;13.888;2022-09-12T07:26:35;3.28;;;0.70;;
47713;SDS011;33475;46.614;13.888;2022-09-12T07:29:02;0.70;;;0.50;;
47713;SDS011;33475;46.614;13.888;2022-09-12T07:31:29;3.03;;;0.60;;
47713;SDS011;33475;46.614;13.888;2022-09-12T07:33:55;2.72;;;0.40;;
47713;SDS011;33475;46.614;13.888;2022-09-12T07:36:22;0.93;;;0.40;;
47713;SDS011;33475;46.614;13.888;2022-09-12T07:38:53;0.30;;;0.30;;
47713;SDS011;33475;46.614;13.888;2022-09-12T07:41:20;0.60;;;0.40;;
47713;SDS011;33475;46.614;13.888;2022-09-12T07:43:50;1.35;;;0.28;;
47713;SDS011;33475;46.614;13.888;2022-09-12T07:46:16;0.35;;;0.30;;
47713;SDS011;33475;46.614;13.888;2022-09-12T07:48:42;5.78;;;0.40;;
47713;SDS011;33475;46.614;13.888;2022-09-12T07:51:09;0.63;;;0.43;;
47713;SDS011;33475;46.614;13.888;2022-09-12T07:53:39;3.90;;;0.40;;
47713;SDS011;33475;46.614;13.888;2022-09-12T07:56:07;1.45;;;0.80;;
47713;SDS011;33475;46.614;13.888;2022-09-12T07:58:37;3.22;;;0.50;;
47713;SDS011;33475;46.614;13.888;2022-09-12T08:01:05;4.55;;;1.00;;
47713;SDS011;33475;46.614;13.888;2022-09-12T08:03:33;2.35;;;0.50;;
47713;SDS011;33475;46.614;13.888;2022-09-12T08:06:03;1.38;;;0.60;;
47713;SDS011;33475;46.614;13.888;2022-09-12T08:08:29;8.27;;;1.77;;
47713;SDS011;33475;46.614;13.888;2022-09-12T08:10:56;0.88;;;0.50;;
47713;SDS011;33475;46.614;13.888;2022-09-12T08:13:22;0.73;;;0.40;;
47713;SDS011;33475;46.614;13.888;2022-09-12T08:15:49;2.47;;;0.38;;
47713;SDS011;33475;46.614;13.888;2022-09-12T08:18:15;0.63;;;0.40;;
47713;SDS011;33475;46.614;13.888;2022-09-12T08:20:42;2.65;;;0.50;;
47713;SDS011;33475;46.614;13.888;2022-09-12T08:23:09;1.85;;;0.50;;
47713;SDS011;33475;46.614;13.888;2022-09-12T08:25:35;0.93;;;0.52;;
47713;SDS011;33475;46.614;13.888;2022-09-12T08:28:01;1.50;;;0.70;;
47713;SDS011;33475;46.614;13.888;2022-09-12T08:30:27;1.08;;;0.52;;
47713;SDS011;33475;46.614;13.888;2022-09-12T08:32:53;3.50;;;0.75;;
47713;SDS011;33475;46.614;13.888;2022-09-12T08:35:19;1.98;;;0.40;;
47713;SDS011;33475;46.614;13.888;2022-09-12T08:37:45;0.63;;;0.30;;
47713;SDS011;33475;46.614;13.888;2022-09-12T08:40:15;2.15;;;0.32;;
47713;SDS011;33475;46.614;13.888;2022-09-12T08:42:49;0.63;;;0.40;;
47713;SDS011;33475;46.614;13.888;2022-09-12T08:45:22;4.28;;;0.40;;
47713;SDS011;33475;46.614;13.888;2022-09-12T08:47:52;2.72;;;0.30;;
47713;SDS011;33475;46.614;13.888;2022-09-12T08:50:19;0.80;;;0.20;;
47713;SDS011;33475;46.614;13.888;2022-09-12T08:55:24;0.70;;;0.40;;
47713;SDS011;33475;46.614;13.888;2022-09-12T08:57:50;0.47;;;0.40;;
47713;SDS011;33475;46.614;13.888;2022-09-12T09:00:17;7.90;;;0.75;;
47713;SDS011;33475;46.614;13.888;2022-09-12T09:02:52;2.22;;;0.50;;
47713;SDS011;33475;46.614;13.888;2022-09-12T09:05:28;3.83;;;0.60;;
47713;SDS011;33475;46.614;13.888;2022-09-12T09:10:47;3.00;;;0.30;;
47713;SDS011;33475;46.614;13.888;2022-09-12T09:18:45;3.92;;;1.55;;
47713;SDS011;33475;46.614;13.888;2022-09-12T09:21:21;2.33;;;0.40;;
47713;SDS011;33475;46.614;13.888;2022-09-12T09:23:49;1.38;;;0.50;;
47713;SDS011;33475;46.614;13.888;2022-09-12T09:26:22;0.68;;;0.40;;
47713;SDS011;33475;46.614;13.888;2022-09-12T09:31:29;0.65;;;0.30;;
47713;SDS011;33475;46.614;13.888;2022-09-12T09:33:58;0.30;;;0.30;;
47713;SDS011;33475;46.614;13.888;2022-09-12T09:44:20;4.03;;;0.80;;
47713;SDS011;33475;46.614;13.888;2022-09-12T09:46:47;0.30;;;0.30;;
47713;SDS011;33475;46.614;13.888;2022-09-12T09:49:15;1.50;;;0.30;;
47713;SDS011;33475;46.614;13.888;2022-09-12T09:51:42;0.47;;;0.32;;
47713;SDS011;33475;46.614;13.888;2022-09-12T09:56:35;2.20;;;0.30;;
47713;SDS011;33475;46.614;13.888;2022-09-12T09:59:37;2.30;;;0.60;;
47713;SDS011;33475;46.614;13.888;2022-09-12T10:01:57;0.55;;;0.30;;
47713;SDS011;33475;46.614;13.888;2022-09-12T10:04:32;2.70;;;0.40;;
47713;SDS011;33475;46.614;13.888;2022-09-12T10:06:59;0.35;;;0.20;;
47713;SDS011;33475;46.614;13.888;2022-09-12T10:09:27;0.85;;;0.30;;
47713;SDS011;33475;46.614;13.888;2022-09-12T10:11:54;2.00;;;0.20;;
47713;SDS011;33475;46.614;13.888;2022-09-12T10:17:22;1.65;;;0.22;;
47713;SDS011;33475;46.614;13.888;2022-09-12T10:19:48;2.70;;;0.50;;
47713;SDS011;33475;46.614;13.888;2022-09-12T10:22:19;3.72;;;1.92;;
47713;SDS011;33475;46.614;13.888;2022-09-12T10:24:50;1.02;;;0.30;;
47713;SDS011;33475;46.614;13.888;2022-09-12T10:29:45;0.95;;;0.20;;
47713;SDS011;33475;46.614;13.888;2022-09-12T10:32:28;1.48;;;0.30;;
47713;SDS011;33475;46.614;13.888;2022-09-12T10:35:03;1.02;;;0.20;;
47713;SDS011;33475;46.614;13.888;2022-09-12T10:39:59;4.75;;;0.32;;
47713;SDS011;33475;46.614;13.888;2022-09-12T10:45:18;2.40;;;0.30;;
47713;SDS011;33475;46.614;13.888;2022-09-12T10:47:45;0.45;;;0.10;;
47713;SDS011;33475;46.614;13.888;2022-09-12T10:50:21;0.22;;;0.10;;
47713;SDS011;33475;46.614;13.888;2022-09-12T10:52:48;0.50;;;0.17;;
47713;SDS011;33475;46.614;13.888;2022-09-12T10:55:15;0.98;;;0.30;;
47713;SDS011;33475;46.614;13.888;2022-09-12T10:58:16;0.45;;;0.20;;
47713;SDS011;33475;46.614;13.888;2022-09-12T11:00:34;0.95;;;0.22;;
47713;SDS011;33475;46.614;13.888;2022-09-12T11:08:20;1.65;;;0.20;;
47713;SDS011;33475;46.614;13.888;2022-09-12T11:16:21;1.75;;;0.20;;
47713;SDS011;33475;46.614;13.888;2022-09-12T11:26:31;0.63;;;0.20;;
47713;SDS011;33475;46.614;13.888;2022-09-12T11:29:09;0.20;;;0.20;;
47713;SDS011;33475;46.614;13.888;2022-09-12T11:35:05;0.60;;;0.10;;
47713;SDS011;33475;46.614;13.888;2022-09-12T11:37:10;0.77;;;0.20;;
47713;SDS011;33475;46.614;13.888;2022-09-12T11:39:41;2.55;;;0.20;;
47713;SDS011;33475;46.614;13.888;2022-09-12T11:42:12;0.82;;;0.28;;
47713;SDS011;33475;46.614;13.888;2022-09-12T11:44:44;0.55;;;0.30;;
47713;SDS011;33475;46.614;13.888;2022-09-12T11:47:12;1.08;;;0.10;;
47713;SDS011;33475;46.614;13.888;2022-09-12T11:49:39;2.28;;;0.30;;
47713;SDS011;33475;46.614;13.888;2022-09-12T11:52:10;0.30;;;0.20;;
47713;SDS011;33475;46.614;13.888;2022-09-12T12:01:57;0.10;;;0.10;;
47713;SDS011;33475;46.614;13.888;2022-09-12T12:04:30;0.22;;;0.20;;
47713;SDS011;33475;46.614;13.888;2022-09-12T12:07:02;0.15;;;0.15;;
47713;SDS011;33475;46.614;13.888;2022-09-12T12:09:30;0.10;;;0.10;;
47713;SDS011;33475;46.614;13.888;2022-09-12T12:11:57;0.52;;;0.10;;
47713;SDS011;33475;46.614;13.888;2022-09-12T12:14:28;1.42;;;0.30;;
47713;SDS011;33475;46.614;13.888;2022-09-12T12:16:56;1.10;;;0.30;;
47713;SDS011;33475;46.614;13.888;2022-09-12T12:19:32;0.57;;;0.30;;
47713;SDS011;33475;46.614;13.888;2022-09-12T12:22:07;0.13;;;0.10;;
47713;SDS011;33475;46.614;13.888;2022-09-12T12:24:34;0.32;;;0.10;;
47713;SDS011;33475;46.614;13.888;2022-09-12T12:27:02;0.98;;;0.25;;
47713;SDS011;33475;46.614;13.888;2022-09-12T12:34:28;0.63;;;0.20;;
47713;SDS011;33475;46.614;13.888;2022-09-12T12:36:55;0.75;;;0.20;;
47713;SDS011;33475;46.614;13.888;2022-09-12T12:41:57;0.20;;;0.10;;
47713;SDS011;33475;46.614;13.888;2022-09-12T12:47:53;1.27;;;0.20;;
47713;SDS011;33475;46.614;13.888;2022-09-12T12:49:55;1.17;;;0.10;;
47713;SDS011;33475;46.614;13.888;2022-09-12T12:52:23;0.20;;;0.10;;
47713;SDS011;33475;46.614;13.888;2022-09-12T12:54:54;0.17;;;0.10;;
47713;SDS011;33475;46.614;13.888;2022-09-12T12:57:26;0.40;;;0.20;;
47713;SDS011;33475;46.614;13.888;2022-09-12T12:59:58;0.47;;;0.20;;
47713;SDS011;33475;46.614;13.888;2022-09-12T13:04:52;0.70;;;0.10;;
47713;SDS011;33475;46.614;13.888;2022-09-12T13:07:21;0.10;;;0.10;;
47713;SDS011;33475;46.614;13.888;2022-09-12T13:09:50;1.17;;;0.28;;
47713;SDS011;33475;46.614;13.888;2022-09-12T13:12:20;0.10;;;0.10;;
47713;SDS011;33475;46.614;13.888;2022-09-12T13:14:54;0.25;;;0.10;;
47713;SDS011;33475;46.614;13.888;2022-09-12T13:20:17;0.70;;;0.20;;
47713;SDS011;33475;46.614;13.888;2022-09-12T13:22:45;0.32;;;0.30;;
47713;SDS011;33475;46.614;13.888;2022-09-12T13:25:17;0.32;;;0.20;;
47713;SDS011;33475;46.614;13.888;2022-09-12T13:30:24;2.10;;;0.30;;
47713;SDS011;33475;46.614;13.888;2022-09-12T13:32:52;0.30;;;0.30;;
47713;SDS011;33475;46.614;13.888;2022-09-12T13:35:25;0.43;;;0.40;;
47713;SDS011;33475;46.614;13.888;2022-09-12T13:38:00;1.40;;;0.30;;
47713;SDS011;33475;46.614;13.888;2022-09-12T13:40:52;0.55;;;0.22;;
47713;SDS011;33475;46.614;13.888;2022-09-12T13:43:25;0.30;;;0.20;;
47713;SDS011;33475;46.614;13.888;2022-09-12T13:45:55;0.17;;;0.10;;
47713;SDS011;33475;46.614;13.888;2022-09-12T13:48:22;0.50;;;0.10;;
47713;SDS011;33475;46.614;13.888;2022-09-12T13:50:50;0.25;;;0.22;;
47713;SDS011;33475;46.614;13.888;2022-09-12T13:53:24;0.30;;;0.15;;
47713;SDS011;33475;46.614;13.888;2022-09-12T13:55:52;0.93;;;0.17;;
47713;SDS011;33475;46.614;13.888;2022-09-12T13:58:21;0.10;;;0.10;;
47713;SDS011;33475;46.614;13.888;2022-09-12T14:03:37;0.55;;;0.35;;
47713;SDS011;33475;46.614;13.888;2022-09-12T14:06:22;0.55;;;0.20;;
47713;SDS011;33475;46.614;13.888;2022-09-12T14:08:49;0.20;;;0.10;;
47713;SDS011;33475;46.614;13.888;2022-09-12T14:11:23;0.88;;;0.30;;
47713;SDS011;33475;46.614;13.888;2022-09-12T14:13:50;0.20;;;0.20;;
47713;SDS011;33475;46.614;13.888;2022-09-12T14:16:17;0.70;;;0.22;;
47713;SDS011;33475;46.614;13.888;2022-09-12T14:18:46;0.47;;;0.20;;
47713;SDS011;33475;46.614;13.888;2022-09-12T14:21:19;1.10;;;0.20;;
47713;SDS011;33475;46.614;13.888;2022-09-12T14:23:47;1.75;;;0.22;;
47713;SDS011;33475;46.614;13.888;2022-09-12T14:26:13;0.68;;;0.17;;
47713;SDS011;33475;46.614;13.888;2022-09-12T14:28:42;4.03;;;0.40;;
47713;SDS011;33475;46.614;13.888;2022-09-12T14:34:07;0.43;;;0.15;;
47713;SDS011;33475;46.614;13.888;2022-09-12T14:36:35;0.40;;;0.20;;
47713;SDS011;33475;46.614;13.888;2022-09-12T14:39:05;1.33;;;0.28;;
47713;SDS011;33475;46.614;13.888;2022-09-12T14:41:33;0.65;;;0.20;;
47713;SDS011;33475;46.614;13.888;2022-09-12T14:44:01;0.22;;;0.20;;
47713;SDS011;33475;46.614;13.888;2022-09-12T14:46:29;1.70;;;0.10;;
47713;SDS011;33475;46.614;13.888;2022-09-12T15:00:04;1.00;;;0.30;;
47713;SDS011;33475;46.614;13.888;2022-09-12T15:02:30;0.52;;;0.22;;
47713;SDS011;33475;46.614;13.888;2022-09-12T15:09:57;0.65;;;0.20;;
47713;SDS011;33475;46.614;13.888;2022-09-12T15:12:24;0.40;;;0.20;;
47713;SDS011;33475;46.614;13.888;2022-09-12T15:14:50;0.68;;;0.20;;
47713;SDS011;33475;46.614;13.888;2022-09-12T15:17:16;0.38;;;0.20;;
47713;SDS011;33475;46.614;13.888;2022-09-12T15:19:42;0.95;;;0.20;;
47713;SDS011;33475;46.614;13.888;2022-09-12T15:22:11;0.25;;;0.20;;
47713;SDS011;33475;46.614;13.888;2022-09-12T15:24:38;1.02;;;0.28;;
47713;SDS011;33475;46.614;13.888;2022-09-12T15:27:08;0.20;;;0.20;;
47713;SDS011;33475;46.614;13.888;2022-09-12T15:29:34;0.57;;;0.30;;
47713;SDS011;33475;46.614;13.888;2022-09-12T15:32:00;0.50;;;0.50;;
47713;SDS011;33475;46.614;13.888;2022-09-12T15:34:27;0.45;;;0.20;;
47713;SDS011;33475;46.614;13.888;2022-09-12T15:36:53;0.43;;;0.10;;
47713;SDS011;33475;46.614;13.888;2022-09-12T15:39:19;0.30;;;0.20;;
47713;SDS011;33475;46.614;13.888;2022-09-12T15:41:45;1.30;;;0.25;;
47713;SDS011;33475;46.614;13.888;2022-09-12T15:44:12;1.65;;;0.30;;
47713;SDS011;33475;46.614;13.888;2022-09-12T15:46:39;0.75;;;0.52;;
47713;SDS011;33475;46.614;13.888;2022-09-12T15:49:05;0.20;;;0.20;;
47713;SDS011;33475;46.614;13.888;2022-09-12T15:51:31;0.50;;;0.22;;
47713;SDS011;33475;46.614;13.888;2022-09-12T15:53:58;0.73;;;0.22;;
47713;SDS011;33475;46.614;13.888;2022-09-12T15:56:25;0.20;;;0.20;;
47713;SDS011;33475;46.614;13.888;2022-09-12T15:58:51;0.57;;;0.30;;
47713;SDS011;33475;46.614;13.888;2022-09-12T16:01:17;1.50;;;0.30;;
47713;SDS011;33475;46.614;13.888;2022-09-12T16:03:46;0.50;;;0.20;;
47713;SDS011;33475;46.614;13.888;2022-09-12T16:06:12;0.20;;;0.20;;
47713;SDS011;33475;46.614;13.888;2022-09-12T16:08:39;1.95;;;0.40;;
47713;SDS011;33475;46.614;13.888;2022-09-12T16:11:06;0.80;;;0.20;;
47713;SDS011;33475;46.614;13.888;2022-09-12T16:13:33;2.35;;;0.28;;
47713;SDS011;33475;46.614;13.888;2022-09-12T16:15:59;2.08;;;0.20;;
47713;SDS011;33475;46.614;13.888;2022-09-12T16:18:26;0.10;;;0.10;;
47713;SDS011;33475;46.614;13.888;2022-09-12T16:20:53;0.80;;;0.20;;
47713;SDS011;33475;46.614;13.888;2022-09-12T16:23:19;1.08;;;0.15;;
47713;SDS011;33475;46.614;13.888;2022-09-12T16:25:56;0.35;;;0.13;;
47713;SDS011;33475;46.614;13.888;2022-09-12T16:28:22;0.95;;;0.40;;
47713;SDS011;33475;46.614;13.888;2022-09-12T16:31:02;1.45;;;0.10;;
47713;SDS011;33475;46.614;13.888;2022-09-12T16:33:29;1.60;;;0.30;;
47713;SDS011;33475;46.614;13.888;2022-09-12T16:36:02;0.93;;;0.30;;
47713;SDS011;33475;46.614;13.888;2022-09-12T16:38:29;1.33;;;0.30;;
47713;SDS011;33475;46.614;13.888;2022-09-12T16:40:59;0.75;;;0.35;;
47713;SDS011;33475;46.614;13.888;2022-09-12T16:43:25;1.98;;;0.25;;
47713;SDS011;33475;46.614;13.888;2022-09-12T16:45:58;1.23;;;0.50;;
47713;SDS011;33475;46.614;13.888;2022-09-12T16:48:25;0.73;;;0.60;;
47713;SDS011;33475;46.614;13.888;2022-09-12T16:51:00;0.40;;;0.32;;
47713;SDS011;33475;46.614;13.888;2022-09-12T16:53:34;1.20;;;0.30;;
47713;SDS011;33475;46.614;13.888;2022-09-12T16:56:01;1.80;;;0.30;;
47713;SDS011;33475;46.614;13.888;2022-09-12T16:58:27;1.30;;;0.40;;
47713;SDS011;33475;46.614;13.888;2022-09-12T17:01:07;2.53;;;0.30;;
47713;SDS011;33475;46.614;13.888;2022-09-12T17:03:33;0.40;;;0.30;;
47713;SDS011;33475;46.614;13.888;2022-09-12T17:06:00;1.17;;;0.47;;